Terminal Aerodrome Forecast
Issued by NWS Twin Cities, MN

Home | Current Version | Previous Version | Graphics & Text | Print | Product List | Glossary On
Versions: 1 2 3 4 5 6 7 8 9 10 11 12 13 14 15 16 17 18
000
FTUS43 KMPX 011100 AAA
TAFSTC
TAF AMD
KSTC 011100Z 0111/0206 VRB03KT P6SM SCT070
      TEMPO 0111/0112 1SM BR
     FM011500 24008KT P6SM SCT100
     FM020000 VRB03KT P6SM SCT080 PROB30 0200/0204 5SM TSRA
      OVC060CB=

USA.gov is the U.S. government's official web portal to all federal, state and local government web resources and services.